sensor_id;sensor_type;location;lat;lon;timestamp;temperature;humidity
80274;DHT22;69576;51.902;-8.462;2024-03-07T00:02:13;12.00;78.20
80274;DHT22;69576;51.902;-8.462;2024-03-07T00:04:38;12.00;78.30
80274;DHT22;69576;51.902;-8.462;2024-03-07T00:07:04;12.00;78.20
80274;DHT22;69576;51.902;-8.462;2024-03-07T00:09:34;12.00;78.20
80274;DHT22;69576;51.902;-8.462;2024-03-07T00:12:01;12.00;78.20
80274;DHT22;69576;51.902;-8.462;2024-03-07T00:14:27;12.00;78.20
80274;DHT22;69576;51.902;-8.462;2024-03-07T00:16:54;12.00;78.30
80274;DHT22;69576;51.902;-8.462;2024-03-07T00:19:20;12.00;78.30
80274;DHT22;69576;51.902;-8.462;2024-03-07T00:21:47;12.00;78.20
80274;DHT22;69576;51.902;-8.462;2024-03-07T00:24:13;11.90;78.20
80274;DHT22;69576;51.902;-8.462;2024-03-07T00:26:39;12.00;78.30
80274;DHT22;69576;51.902;-8.462;2024-03-07T00:29:06;11.90;78.30
80274;DHT22;69576;51.902;-8.462;2024-03-07T00:31:32;11.90;78.30
80274;DHT22;69576;51.902;-8.462;2024-03-07T00:33:59;11.90;78.20
80274;DHT22;69576;51.902;-8.462;2024-03-07T00:36:25;12.00;78.30
80274;DHT22;69576;51.902;-8.462;2024-03-07T00:38:52;11.90;78.40
80274;DHT22;69576;51.902;-8.462;2024-03-07T00:41:18;11.90;78.30
80274;DHT22;69576;51.902;-8.462;2024-03-07T00:43:44;11.90;78.30
80274;DHT22;69576;51.902;-8.462;2024-03-07T00:46:10;11.90;78.30
80274;DHT22;69576;51.902;-8.462;2024-03-07T00:48:37;11.90;78.40
80274;DHT22;69576;51.902;-8.462;2024-03-07T00:51:03;11.90;78.50
80274;DHT22;69576;51.902;-8.462;2024-03-07T00:53:30;11.90;78.40
80274;DHT22;69576;51.902;-8.462;2024-03-07T00:55:58;11.90;78.50
80274;DHT22;69576;51.902;-8.462;2024-03-07T00:58:24;11.90;78.40
80274;DHT22;69576;51.902;-8.462;2024-03-07T01:00:50;11.90;78.40
80274;DHT22;69576;51.902;-8.462;2024-03-07T01:03:16;11.90;78.40
80274;DHT22;69576;51.902;-8.462;2024-03-07T01:05:43;11.90;78.40
80274;DHT22;69576;51.902;-8.462;2024-03-07T01:08:09;11.90;78.70
80274;DHT22;69576;51.902;-8.462;2024-03-07T01:10:35;11.90;78.50
80274;DHT22;69576;51.902;-8.462;2024-03-07T01:13:01;11.90;78.40
80274;DHT22;69576;51.902;-8.462;2024-03-07T01:15:31;11.90;78.50
80274;DHT22;69576;51.902;-8.462;2024-03-07T01:17:58;11.90;78.60
80274;DHT22;69576;51.902;-8.462;2024-03-07T01:20:23;11.90;78.50
80274;DHT22;69576;51.902;-8.462;2024-03-07T01:22:51;11.90;78.40
80274;DHT22;69576;51.902;-8.462;2024-03-07T01:25:18;11.90;78.40
80274;DHT22;69576;51.902;-8.462;2024-03-07T01:27:44;11.90;78.40
80274;DHT22;69576;51.902;-8.462;2024-03-07T01:30:10;11.90;78.50
80274;DHT22;69576;51.902;-8.462;2024-03-07T01:32:36;11.90;78.30
80274;DHT22;69576;51.902;-8.462;2024-03-07T01:35:02;11.90;78.30
80274;DHT22;69576;51.902;-8.462;2024-03-07T01:37:28;11.90;78.30
80274;DHT22;69576;51.902;-8.462;2024-03-07T01:39:54;11.90;78.40
80274;DHT22;69576;51.902;-8.462;2024-03-07T01:42:20;11.90;78.50
80274;DHT22;69576;51.902;-8.462;2024-03-07T01:44:46;11.90;78.30
80274;DHT22;69576;51.902;-8.462;2024-03-07T01:47:12;11.90;78.30
80274;DHT22;69576;51.902;-8.462;2024-03-07T01:49:42;11.80;78.30
80274;DHT22;69576;51.902;-8.462;2024-03-07T01:52:09;11.80;78.20
80274;DHT22;69576;51.902;-8.462;2024-03-07T01:54:36;11.80;78.50
80274;DHT22;69576;51.902;-8.462;2024-03-07T01:57:04;11.80;78.30
80274;DHT22;69576;51.902;-8.462;2024-03-07T01:59:30;11.80;78.30
80274;DHT22;69576;51.902;-8.462;2024-03-07T02:01:58;11.80;78.20
80274;DHT22;69576;51.902;-8.462;2024-03-07T02:04:24;11.80;78.20
80274;DHT22;69576;51.902;-8.462;2024-03-07T02:06:50;11.70;78.20
80274;DHT22;69576;51.902;-8.462;2024-03-07T02:09:18;11.70;78.30
80274;DHT22;69576;51.902;-8.462;2024-03-07T02:11:47;11.70;78.20
80274;DHT22;69576;51.902;-8.462;2024-03-07T02:14:14;11.70;78.50
80274;DHT22;69576;51.902;-8.462;2024-03-07T02:16:40;11.70;78.30
80274;DHT22;69576;51.902;-8.462;2024-03-07T02:19:14;11.70;78.20
80274;DHT22;69576;51.902;-8.462;2024-03-07T02:21:40;11.70;78.20
80274;DHT22;69576;51.902;-8.462;2024-03-07T02:24:06;11.70;78.20
80274;DHT22;69576;51.902;-8.462;2024-03-07T02:26:31;11.70;78.20
80274;DHT22;69576;51.902;-8.462;2024-03-07T02:28:57;11.70;78.40
80274;DHT22;69576;51.902;-8.462;2024-03-07T02:31:23;11.70;78.40
80274;DHT22;69576;51.902;-8.462;2024-03-07T02:34:03;11.70;78.60
80274;DHT22;69576;51.902;-8.462;2024-03-07T02:36:30;11.70;78.30
80274;DHT22;69576;51.902;-8.462;2024-03-07T02:38:56;11.70;78.60
80274;DHT22;69576;51.902;-8.462;2024-03-07T02:41:22;11.70;78.30
80274;DHT22;69576;51.902;-8.462;2024-03-07T02:43:47;11.70;78.50
80274;DHT22;69576;51.902;-8.462;2024-03-07T02:46:13;11.70;78.50
80274;DHT22;69576;51.902;-8.462;2024-03-07T02:48:39;11.70;78.30
80274;DHT22;69576;51.902;-8.462;2024-03-07T02:51:05;11.70;78.40
80274;DHT22;69576;51.902;-8.462;2024-03-07T02:53:33;11.70;78.50
80274;DHT22;69576;51.902;-8.462;2024-03-07T02:55:59;11.70;78.40
80274;DHT22;69576;51.902;-8.462;2024-03-07T02:58:25;11.70;78.50
80274;DHT22;69576;51.902;-8.462;2024-03-07T03:00:58;11.70;78.50
80274;DHT22;69576;51.902;-8.462;2024-03-07T03:03:28;11.70;78.40
80274;DHT22;69576;51.902;-8.462;2024-03-07T03:05:57;11.70;78.30
80274;DHT22;69576;51.902;-8.462;2024-03-07T03:08:24;11.70;78.40
80274;DHT22;69576;51.902;-8.462;2024-03-07T03:10:50;11.70;78.40
80274;DHT22;69576;51.902;-8.462;2024-03-07T03:13:17;11.70;78.10
80274;DHT22;69576;51.902;-8.462;2024-03-07T03:15:43;11.70;78.50
80274;DHT22;69576;51.902;-8.462;2024-03-07T03:18:09;11.70;78.30
80274;DHT22;69576;51.902;-8.462;2024-03-07T03:20:35;11.70;78.30
80274;DHT22;69576;51.902;-8.462;2024-03-07T03:23:05;11.70;78.10
80274;DHT22;69576;51.902;-8.462;2024-03-07T03:25:31;11.70;78.50
80274;DHT22;69576;51.902;-8.462;2024-03-07T03:28:04;11.70;78.70
80274;DHT22;69576;51.902;-8.462;2024-03-07T03:30:30;11.70;78.70
80274;DHT22;69576;51.902;-8.462;2024-03-07T03:32:58;11.70;78.50
80274;DHT22;69576;51.902;-8.462;2024-03-07T03:35:24;11.70;78.30
80274;DHT22;69576;51.902;-8.462;2024-03-07T03:37:50;11.70;78.30
80274;DHT22;69576;51.902;-8.462;2024-03-07T03:40:16;11.70;78.30
80274;DHT22;69576;51.902;-8.462;2024-03-07T03:42:42;11.70;78.30
80274;DHT22;69576;51.902;-8.462;2024-03-07T03:45:09;11.70;78.10
80274;DHT22;69576;51.902;-8.462;2024-03-07T03:47:40;11.70;78.10
80274;DHT22;69576;51.902;-8.462;2024-03-07T03:50:07;11.70;78.10
80274;DHT22;69576;51.902;-8.462;2024-03-07T03:52:33;11.70;78.20
80274;DHT22;69576;51.902;-8.462;2024-03-07T03:55:01;11.60;78.20
80274;DHT22;69576;51.902;-8.462;2024-03-07T03:57:28;11.60;78.50
80274;DHT22;69576;51.902;-8.462;2024-03-07T03:59:54;11.60;78.40
80274;DHT22;69576;51.902;-8.462;2024-03-07T04:02:20;11.60;78.50
80274;DHT22;69576;51.902;-8.462;2024-03-07T04:04:48;11.60;78.50
80274;DHT22;69576;51.902;-8.462;2024-03-07T04:07:14;11.70;78.30
80274;DHT22;69576;51.902;-8.462;2024-03-07T04:09:42;11.60;78.50
80274;DHT22;69576;51.902;-8.462;2024-03-07T04:12:08;11.70;78.20
80274;DHT22;69576;51.902;-8.462;2024-03-07T04:14:39;11.60;78.40
80274;DHT22;69576;51.902;-8.462;2024-03-07T04:17:07;11.60;78.60
80274;DHT22;69576;51.902;-8.462;2024-03-07T04:19:36;11.70;78.60
80274;DHT22;69576;51.902;-8.462;2024-03-07T04:22:06;11.70;78.60
80274;DHT22;69576;51.902;-8.462;2024-03-07T04:24:36;11.70;78.40
80274;DHT22;69576;51.902;-8.462;2024-03-07T04:27:03;11.70;78.50
80274;DHT22;69576;51.902;-8.462;2024-03-07T04:29:33;11.70;78.40
80274;DHT22;69576;51.902;-8.462;2024-03-07T04:32:00;11.70;78.30
80274;DHT22;69576;51.902;-8.462;2024-03-07T04:34:29;11.70;78.30
80274;DHT22;69576;51.902;-8.462;2024-03-07T04:36:59;11.70;78.50
80274;DHT22;69576;51.902;-8.462;2024-03-07T04:39:27;11.70;78.20
80274;DHT22;69576;51.902;-8.462;2024-03-07T04:41:59;11.70;78.50
80274;DHT22;69576;51.902;-8.462;2024-03-07T04:44:28;11.70;78.40
80274;DHT22;69576;51.902;-8.462;2024-03-07T04:46:54;11.70;78.20
80274;DHT22;69576;51.902;-8.462;2024-03-07T04:49:27;11.70;78.20
80274;DHT22;69576;51.902;-8.462;2024-03-07T04:51:57;11.70;78.00
80274;DHT22;69576;51.902;-8.462;2024-03-07T04:54:24;11.70;78.10
80274;DHT22;69576;51.902;-8.462;2024-03-07T04:56:51;11.70;78.20
80274;DHT22;69576;51.902;-8.462;2024-03-07T04:59:18;11.60;78.00
80274;DHT22;69576;51.902;-8.462;2024-03-07T05:01:45;11.60;78.40
80274;DHT22;69576;51.902;-8.462;2024-03-07T05:04:15;11.70;78.30
80274;DHT22;69576;51.902;-8.462;2024-03-07T05:06:42;11.70;78.30
80274;DHT22;69576;51.902;-8.462;2024-03-07T05:09:10;11.70;78.30
80274;DHT22;69576;51.902;-8.462;2024-03-07T05:11:47;11.70;78.20
80274;DHT22;69576;51.902;-8.462;2024-03-07T05:14:13;11.60;78.30
80274;DHT22;69576;51.902;-8.462;2024-03-07T05:16:38;11.70;78.20
80274;DHT22;69576;51.902;-8.462;2024-03-07T05:19:04;11.60;78.10
80274;DHT22;69576;51.902;-8.462;2024-03-07T05:21:30;11.60;78.20
80274;DHT22;69576;51.902;-8.462;2024-03-07T05:24:00;11.60;78.50
80274;DHT22;69576;51.902;-8.462;2024-03-07T05:26:26;11.60;78.50
80274;DHT22;69576;51.902;-8.462;2024-03-07T05:28:52;11.70;78.40
80274;DHT22;69576;51.902;-8.462;2024-03-07T05:31:20;11.70;78.40
80274;DHT22;69576;51.902;-8.462;2024-03-07T05:33:47;11.70;78.40
80274;DHT22;69576;51.902;-8.462;2024-03-07T05:36:13;11.70;78.10
80274;DHT22;69576;51.902;-8.462;2024-03-07T05:38:41;11.60;78.30
80274;DHT22;69576;51.902;-8.462;2024-03-07T05:41:09;11.70;78.20
80274;DHT22;69576;51.902;-8.462;2024-03-07T05:43:36;11.60;78.40
80274;DHT22;69576;51.902;-8.462;2024-03-07T05:46:02;11.60;78.30
80274;DHT22;69576;51.902;-8.462;2024-03-07T05:48:30;11.60;78.20
80274;DHT22;69576;51.902;-8.462;2024-03-07T05:50:57;11.60;77.90
80274;DHT22;69576;51.902;-8.462;2024-03-07T05:53:24;11.60;78.20
80274;DHT22;69576;51.902;-8.462;2024-03-07T05:55:50;11.60;78.20
80274;DHT22;69576;51.902;-8.462;2024-03-07T05:58:18;11.60;78.00
80274;DHT22;69576;51.902;-8.462;2024-03-07T06:00:45;11.60;78.30
80274;DHT22;69576;51.902;-8.462;2024-03-07T06:03:18;11.60;78.20
80274;DHT22;69576;51.902;-8.462;2024-03-07T06:05:47;11.60;77.90
80274;DHT22;69576;51.902;-8.462;2024-03-07T06:08:20;11.60;78.10
80274;DHT22;69576;51.902;-8.462;2024-03-07T06:10:49;11.50;78.00
80274;DHT22;69576;51.902;-8.462;2024-03-07T06:13:16;11.50;78.20
80274;DHT22;69576;51.902;-8.462;2024-03-07T06:15:46;11.50;78.00
80274;DHT22;69576;51.902;-8.462;2024-03-07T06:18:13;11.60;78.10
80274;DHT22;69576;51.902;-8.462;2024-03-07T06:20:43;11.50;78.10
80274;DHT22;69576;51.902;-8.462;2024-03-07T06:23:10;11.50;78.30
80274;DHT22;69576;51.902;-8.462;2024-03-07T06:25:38;11.50;78.10
80274;DHT22;69576;51.902;-8.462;2024-03-07T06:28:13;11.50;77.70
80274;DHT22;69576;51.902;-8.462;2024-03-07T06:30:46;11.50;77.90
80274;DHT22;69576;51.902;-8.462;2024-03-07T06:33:12;11.50;78.10
80274;DHT22;69576;51.902;-8.462;2024-03-07T06:35:39;11.50;78.20
80274;DHT22;69576;51.902;-8.462;2024-03-07T06:38:09;11.50;78.30
80274;DHT22;69576;51.902;-8.462;2024-03-07T06:40:36;11.50;78.20
80274;DHT22;69576;51.902;-8.462;2024-03-07T06:43:03;11.50;78.30
80274;DHT22;69576;51.902;-8.462;2024-03-07T06:45:30;11.50;78.20
80274;DHT22;69576;51.902;-8.462;2024-03-07T06:47:56;11.50;78.20
80274;DHT22;69576;51.902;-8.462;2024-03-07T06:50:22;11.50;78.10
80274;DHT22;69576;51.902;-8.462;2024-03-07T06:52:49;11.50;78.40
80274;DHT22;69576;51.902;-8.462;2024-03-07T06:55:16;11.50;78.10
80274;DHT22;69576;51.902;-8.462;2024-03-07T06:57:45;11.50;78.10
80274;DHT22;69576;51.902;-8.462;2024-03-07T07:00:12;11.50;78.10
80274;DHT22;69576;51.902;-8.462;2024-03-07T07:02:40;11.60;78.20
80274;DHT22;69576;51.902;-8.462;2024-03-07T07:05:09;11.60;78.00
80274;DHT22;69576;51.902;-8.462;2024-03-07T07:07:41;11.60;78.10
80274;DHT22;69576;51.902;-8.462;2024-03-07T07:10:10;11.60;77.90
80274;DHT22;69576;51.902;-8.462;2024-03-07T07:12:45;11.60;77.80
80274;DHT22;69576;51.902;-8.462;2024-03-07T07:15:12;11.50;77.70
80274;DHT22;69576;51.902;-8.462;2024-03-07T07:17:41;11.50;77.80
80274;DHT22;69576;51.902;-8.462;2024-03-07T07:20:08;11.50;77.70
80274;DHT22;69576;51.902;-8.462;2024-03-07T07:22:39;11.60;77.80
80274;DHT22;69576;51.902;-8.462;2024-03-07T07:25:06;11.60;77.90
80274;DHT22;69576;51.902;-8.462;2024-03-07T07:27:45;11.60;77.70
80274;DHT22;69576;51.902;-8.462;2024-03-07T07:30:15;11.70;77.50
80274;DHT22;69576;51.902;-8.462;2024-03-07T07:32:42;11.60;77.80
80274;DHT22;69576;51.902;-8.462;2024-03-07T07:35:09;11.70;78.00
80274;DHT22;69576;51.902;-8.462;2024-03-07T07:40:05;11.80;77.90
80274;DHT22;69576;51.902;-8.462;2024-03-07T07:42:33;11.80;77.60
80274;DHT22;69576;51.902;-8.462;2024-03-07T07:44:59;11.90;77.80
80274;DHT22;69576;51.902;-8.462;2024-03-07T07:47:26;11.90;77.50
80274;DHT22;69576;51.902;-8.462;2024-03-07T07:49:51;11.90;77.50
80274;DHT22;69576;51.902;-8.462;2024-03-07T07:52:17;11.90;77.20
80274;DHT22;69576;51.902;-8.462;2024-03-07T07:54:43;11.90;77.30
80274;DHT22;69576;51.902;-8.462;2024-03-07T07:57:09;12.00;77.50
80274;DHT22;69576;51.902;-8.462;2024-03-07T07:59:35;12.00;77.10
80274;DHT22;69576;51.902;-8.462;2024-03-07T08:02:02;12.00;76.70
80274;DHT22;69576;51.902;-8.462;2024-03-07T08:04:32;12.00;76.70
80274;DHT22;69576;51.902;-8.462;2024-03-07T08:07:00;12.00;76.60
80274;DHT22;69576;51.902;-8.462;2024-03-07T08:09:28;11.90;76.50
80274;DHT22;69576;51.902;-8.462;2024-03-07T08:11:54;12.00;76.60
80274;DHT22;69576;51.902;-8.462;2024-03-07T08:14:20;12.00;76.50
80274;DHT22;69576;51.902;-8.462;2024-03-07T08:16:49;12.00;76.60
80274;DHT22;69576;51.902;-8.462;2024-03-07T08:19:15;12.00;76.60
80274;DHT22;69576;51.902;-8.462;2024-03-07T08:21:41;12.00;76.50
80274;DHT22;69576;51.902;-8.462;2024-03-07T08:24:07;12.00;76.40
80274;DHT22;69576;51.902;-8.462;2024-03-07T08:26:36;12.00;76.30
80274;DHT22;69576;51.902;-8.462;2024-03-07T08:29:03;12.00;76.40
80274;DHT22;69576;51.902;-8.462;2024-03-07T08:31:28;12.00;76.20
80274;DHT22;69576;51.902;-8.462;2024-03-07T08:33:54;12.00;76.40
80274;DHT22;69576;51.902;-8.462;2024-03-07T08:36:20;12.00;76.20
80274;DHT22;69576;51.902;-8.462;2024-03-07T08:38:46;12.00;76.10
80274;DHT22;69576;51.902;-8.462;2024-03-07T08:41:12;12.00;75.90
80274;DHT22;69576;51.902;-8.462;2024-03-07T08:43:37;12.00;76.00
80274;DHT22;69576;51.902;-8.462;2024-03-07T08:46:03;12.00;76.10
80274;DHT22;69576;51.902;-8.462;2024-03-07T08:48:29;12.00;75.90
80274;DHT22;69576;51.902;-8.462;2024-03-07T08:50:55;12.00;75.90
80274;DHT22;69576;51.902;-8.462;2024-03-07T08:53:21;12.00;75.80
80274;DHT22;69576;51.902;-8.462;2024-03-07T08:55:46;12.00;75.70
80274;DHT22;69576;51.902;-8.462;2024-03-07T08:58:12;12.10;75.70
80274;DHT22;69576;51.902;-8.462;2024-03-07T09:00:38;12.10;75.60
80274;DHT22;69576;51.902;-8.462;2024-03-07T09:03:04;12.00;75.50
80274;DHT22;69576;51.902;-8.462;2024-03-07T09:05:35;12.10;75.90
80274;DHT22;69576;51.902;-8.462;2024-03-07T09:08:00;12.00;75.70
80274;DHT22;69576;51.902;-8.462;2024-03-07T09:10:27;12.00;75.30
80274;DHT22;69576;51.902;-8.462;2024-03-07T09:12:55;12.00;75.30
80274;DHT22;69576;51.902;-8.462;2024-03-07T09:15:21;12.00;75.30
80274;DHT22;69576;51.902;-8.462;2024-03-07T09:17:50;12.00;75.20
80274;DHT22;69576;51.902;-8.462;2024-03-07T09:20:15;12.00;75.10
80274;DHT22;69576;51.902;-8.462;2024-03-07T09:22:44;12.00;75.20
80274;DHT22;69576;51.902;-8.462;2024-03-07T09:25:11;12.00;75.30
80274;DHT22;69576;51.902;-8.462;2024-03-07T09:27:40;12.00;75.20
80274;DHT22;69576;51.902;-8.462;2024-03-07T09:30:07;12.00;75.10
80274;DHT22;69576;51.902;-8.462;2024-03-07T09:32:41;12.00;75.00
80274;DHT22;69576;51.902;-8.462;2024-03-07T09:35:10;12.00;75.10
80274;DHT22;69576;51.902;-8.462;2024-03-07T09:37:43;12.00;75.10
80274;DHT22;69576;51.902;-8.462;2024-03-07T09:40:09;12.00;75.10
80274;DHT22;69576;51.902;-8.462;2024-03-07T09:42:48;12.00;75.20
80274;DHT22;69576;51.902;-8.462;2024-03-07T09:45:18;12.00;75.00
80274;DHT22;69576;51.902;-8.462;2024-03-07T09:47:46;12.00;75.50
80274;DHT22;69576;51.902;-8.462;2024-03-07T09:50:17;12.00;75.30
80274;DHT22;69576;51.902;-8.462;2024-03-07T09:52:46;12.00;75.60
80274;DHT22;69576;51.902;-8.462;2024-03-07T09:55:15;12.00;75.30
80274;DHT22;69576;51.902;-8.462;2024-03-07T09:57:42;11.90;75.00
80274;DHT22;69576;51.902;-8.462;2024-03-07T10:00:08;11.90;75.20
80274;DHT22;69576;51.902;-8.462;2024-03-07T10:02:44;11.90;75.30
80274;DHT22;69576;51.902;-8.462;2024-03-07T10:05:15;11.90;75.00
80274;DHT22;69576;51.902;-8.462;2024-03-07T10:07:42;12.00;75.20
80274;DHT22;69576;51.902;-8.462;2024-03-07T10:10:08;12.00;75.10
80274;DHT22;69576;51.902;-8.462;2024-03-07T10:12:38;12.00;74.90
80274;DHT22;69576;51.902;-8.462;2024-03-07T10:15:04;12.00;75.10
80274;DHT22;69576;51.902;-8.462;2024-03-07T10:17:31;12.00;74.90
80274;DHT22;69576;51.902;-8.462;2024-03-07T10:20:00;12.00;74.90
80274;DHT22;69576;51.902;-8.462;2024-03-07T10:22:26;12.00;74.70
80274;DHT22;69576;51.902;-8.462;2024-03-07T10:24:55;12.00;74.70
80274;DHT22;69576;51.902;-8.462;2024-03-07T10:27:20;12.00;74.70
80274;DHT22;69576;51.902;-8.462;2024-03-07T10:29:51;12.10;74.70
80274;DHT22;69576;51.902;-8.462;2024-03-07T10:32:23;12.10;74.50
80274;DHT22;69576;51.902;-8.462;2024-03-07T10:34:53;12.10;74.70
80274;DHT22;69576;51.902;-8.462;2024-03-07T10:37:20;12.20;74.50
80274;DHT22;69576;51.902;-8.462;2024-03-07T10:39:51;12.20;74.30
80274;DHT22;69576;51.902;-8.462;2024-03-07T10:42:18;12.20;74.30
80274;DHT22;69576;51.902;-8.462;2024-03-07T10:44:48;12.30;73.90
80274;DHT22;69576;51.902;-8.462;2024-03-07T10:47:18;12.30;73.90
80274;DHT22;69576;51.902;-8.462;2024-03-07T10:50:24;12.30;73.80
80274;DHT22;69576;51.902;-8.462;2024-03-07T10:52:59;12.40;74.00
80274;DHT22;69576;51.902;-8.462;2024-03-07T10:56:01;12.50;73.60
80274;DHT22;69576;51.902;-8.462;2024-03-07T11:01:00;12.50;73.70
80274;DHT22;69576;51.902;-8.462;2024-03-07T11:03:30;12.50;73.50
80274;DHT22;69576;51.902;-8.462;2024-03-07T11:05:59;12.60;73.40
80274;DHT22;69576;51.902;-8.462;2024-03-07T11:08:33;12.70;73.40
80274;DHT22;69576;51.902;-8.462;2024-03-07T11:11:00;12.80;73.30
80274;DHT22;69576;51.902;-8.462;2024-03-07T11:13:26;12.80;72.90
80274;DHT22;69576;51.902;-8.462;2024-03-07T11:15:54;12.80;72.90
80274;DHT22;69576;51.902;-8.462;2024-03-07T11:18:23;12.90;72.70
80274;DHT22;69576;51.902;-8.462;2024-03-07T11:20:52;12.90;72.60
80274;DHT22;69576;51.902;-8.462;2024-03-07T11:26:07;13.10;72.40
80274;DHT22;69576;51.902;-8.462;2024-03-07T11:28:38;13.10;71.90
80274;DHT22;69576;51.902;-8.462;2024-03-07T11:31:14;13.10;72.10
80274;DHT22;69576;51.902;-8.462;2024-03-07T11:33:41;13.20;71.90
80274;DHT22;69576;51.902;-8.462;2024-03-07T11:36:09;13.10;71.60
80274;DHT22;69576;51.902;-8.462;2024-03-07T11:38:47;13.10;71.50
80274;DHT22;69576;51.902;-8.462;2024-03-07T11:41:14;13.10;71.20
80274;DHT22;69576;51.902;-8.462;2024-03-07T11:43:43;13.10;71.20
80274;DHT22;69576;51.902;-8.462;2024-03-07T11:46:10;13.00;71.00
80274;DHT22;69576;51.902;-8.462;2024-03-07T11:48:42;13.00;71.10
80274;DHT22;69576;51.902;-8.462;2024-03-07T11:51:12;13.00;71.40
80274;DHT22;69576;51.902;-8.462;2024-03-07T11:53:39;13.00;71.10
80274;DHT22;69576;51.902;-8.462;2024-03-07T11:56:05;12.90;71.10
80274;DHT22;69576;51.902;-8.462;2024-03-07T11:58:38;12.90;71.10
80274;DHT22;69576;51.902;-8.462;2024-03-07T12:01:06;12.80;71.00
80274;DHT22;69576;51.902;-8.462;2024-03-07T12:03:36;12.80;71.20
80274;DHT22;69576;51.902;-8.462;2024-03-07T12:06:03;12.90;71.20
80274;DHT22;69576;51.902;-8.462;2024-03-07T12:08:29;12.90;71.20
80274;DHT22;69576;51.902;-8.462;2024-03-07T12:10:55;12.90;71.40
80274;DHT22;69576;51.902;-8.462;2024-03-07T12:13:22;12.80;71.10
80274;DHT22;69576;51.902;-8.462;2024-03-07T12:15:50;12.80;71.00
80274;DHT22;69576;51.902;-8.462;2024-03-07T12:18:22;12.80;71.10
80274;DHT22;69576;51.902;-8.462;2024-03-07T12:20:49;12.80;70.90
80274;DHT22;69576;51.902;-8.462;2024-03-07T12:23:21;12.70;71.00
80274;DHT22;69576;51.902;-8.462;2024-03-07T12:25:59;12.70;70.90
80274;DHT22;69576;51.902;-8.462;2024-03-07T12:28:27;12.70;71.20
80274;DHT22;69576;51.902;-8.462;2024-03-07T12:30:54;12.60;71.00
80274;DHT22;69576;51.902;-8.462;2024-03-07T12:33:21;12.60;71.00
80274;DHT22;69576;51.902;-8.462;2024-03-07T12:35:54;12.50;71.10
80274;DHT22;69576;51.902;-8.462;2024-03-07T12:38:29;12.50;71.10
80274;DHT22;69576;51.902;-8.462;2024-03-07T12:41:05;12.50;71.10
80274;DHT22;69576;51.902;-8.462;2024-03-07T12:43:32;12.50;71.10
80274;DHT22;69576;51.902;-8.462;2024-03-07T12:46:01;12.50;71.20
80274;DHT22;69576;51.902;-8.462;2024-03-07T12:48:26;12.50;71.50
80274;DHT22;69576;51.902;-8.462;2024-03-07T12:50:53;12.50;71.80
80274;DHT22;69576;51.902;-8.462;2024-03-07T12:53:20;12.50;71.50
80274;DHT22;69576;51.902;-8.462;2024-03-07T12:55:47;12.50;71.70
80274;DHT22;69576;51.902;-8.462;2024-03-07T12:58:13;12.50;71.50
80274;DHT22;69576;51.902;-8.462;2024-03-07T13:00:39;12.40;71.50
80274;DHT22;69576;51.902;-8.462;2024-03-07T13:03:09;12.40;71.40
80274;DHT22;69576;51.902;-8.462;2024-03-07T13:05:36;12.50;71.60
80274;DHT22;69576;51.902;-8.462;2024-03-07T13:08:06;12.50;71.70
80274;DHT22;69576;51.902;-8.462;2024-03-07T13:10:41;12.50;71.50
80274;DHT22;69576;51.902;-8.462;2024-03-07T13:13:07;12.50;71.60
80274;DHT22;69576;51.902;-8.462;2024-03-07T13:15:35;12.50;71.60
80274;DHT22;69576;51.902;-8.462;2024-03-07T13:18:03;12.60;71.30
80274;DHT22;69576;51.902;-8.462;2024-03-07T13:20:31;12.70;71.40
80274;DHT22;69576;51.902;-8.462;2024-03-07T13:22:57;12.70;71.30
80274;DHT22;69576;51.902;-8.462;2024-03-07T13:25:25;12.80;71.60
80274;DHT22;69576;51.902;-8.462;2024-03-07T13:27:56;12.80;71.40
80274;DHT22;69576;51.902;-8.462;2024-03-07T13:30:23;12.80;71.20
80274;DHT22;69576;51.902;-8.462;2024-03-07T13:32:53;12.80;70.90
80274;DHT22;69576;51.902;-8.462;2024-03-07T13:35:20;12.90;71.20
80274;DHT22;69576;51.902;-8.462;2024-03-07T13:37:47;13.00;71.10
80274;DHT22;69576;51.902;-8.462;2024-03-07T13:40:13;13.10;71.30
80274;DHT22;69576;51.902;-8.462;2024-03-07T13:43:10;13.10;70.90
80274;DHT22;69576;51.902;-8.462;2024-03-07T13:45:36;13.10;71.20
80274;DHT22;69576;51.902;-8.462;2024-03-07T13:48:08;13.10;70.90
80274;DHT22;69576;51.902;-8.462;2024-03-07T13:50:36;13.10;70.70
80274;DHT22;69576;51.902;-8.462;2024-03-07T13:53:04;13.10;70.70
80274;DHT22;69576;51.902;-8.462;2024-03-07T14:31:07;12.90;71.30
80274;DHT22;69576;51.902;-8.462;2024-03-07T14:34:12;12.80;70.90
80274;DHT22;69576;51.902;-8.462;2024-03-07T14:36:44;12.80;71.50
80274;DHT22;69576;51.902;-8.462;2024-03-07T14:39:11;12.80;71.00
80274;DHT22;69576;51.902;-8.462;2024-03-07T14:41:47;12.70;71.50
80274;DHT22;69576;51.902;-8.462;2024-03-07T14:44:15;12.70;71.70
80274;DHT22;69576;51.902;-8.462;2024-03-07T14:46:45;12.80;72.10
80274;DHT22;69576;51.902;-8.462;2024-03-07T14:49:16;12.80;71.40
80274;DHT22;69576;51.902;-8.462;2024-03-07T14:51:43;12.80;71.50
80274;DHT22;69576;51.902;-8.462;2024-03-07T14:54:10;12.80;71.50
80274;DHT22;69576;51.902;-8.462;2024-03-07T14:56:36;12.80;71.20
80274;DHT22;69576;51.902;-8.462;2024-03-07T14:59:02;12.80;71.40
80274;DHT22;69576;51.902;-8.462;2024-03-07T15:01:32;12.80;72.10
80274;DHT22;69576;51.902;-8.462;2024-03-07T15:04:02;12.80;71.50
80274;DHT22;69576;51.902;-8.462;2024-03-07T15:06:33;12.80;71.90
80274;DHT22;69576;51.902;-8.462;2024-03-07T15:09:00;12.80;71.40
80274;DHT22;69576;51.902;-8.462;2024-03-07T15:11:35;12.80;71.50
80274;DHT22;69576;51.902;-8.462;2024-03-07T15:14:03;12.80;71.50
80274;DHT22;69576;51.902;-8.462;2024-03-07T15:16:34;12.70;71.40
80274;DHT22;69576;51.902;-8.462;2024-03-07T15:19:03;12.70;71.80
80274;DHT22;69576;51.902;-8.462;2024-03-07T15:21:29;12.70;71.10
80274;DHT22;69576;51.902;-8.462;2024-03-07T15:23:56;12.70;71.20
80274;DHT22;69576;51.902;-8.462;2024-03-07T15:26:22;12.60;71.50
80274;DHT22;69576;51.902;-8.462;2024-03-07T15:28:52;12.60;71.40
80274;DHT22;69576;51.902;-8.462;2024-03-07T15:31:20;12.60;71.20
80274;DHT22;69576;51.902;-8.462;2024-03-07T15:33:47;12.60;72.10
80274;DHT22;69576;51.902;-8.462;2024-03-07T15:36:13;12.60;72.00
80274;DHT22;69576;51.902;-8.462;2024-03-07T15:38:39;12.60;71.40
80274;DHT22;69576;51.902;-8.462;2024-03-07T15:41:05;12.50;71.20
80274;DHT22;69576;51.902;-8.462;2024-03-07T15:43:34;12.50;71.50
80274;DHT22;69576;51.902;-8.462;2024-03-07T15:45:59;12.50;71.20
80274;DHT22;69576;51.902;-8.462;2024-03-07T15:48:25;12.50;71.70
80274;DHT22;69576;51.902;-8.462;2024-03-07T15:50:52;12.50;71.40
80274;DHT22;69576;51.902;-8.462;2024-03-07T15:53:18;12.50;71.60
80274;DHT22;69576;51.902;-8.462;2024-03-07T15:55:45;12.50;71.80
80274;DHT22;69576;51.902;-8.462;2024-03-07T15:58:11;12.50;71.70
80274;DHT22;69576;51.902;-8.462;2024-03-07T16:00:38;12.50;71.90
80274;DHT22;69576;51.902;-8.462;2024-03-07T16:03:06;12.50;72.30
80274;DHT22;69576;51.902;-8.462;2024-03-07T16:05:40;12.50;72.10